createdAt,value
2018-03-31T00:03:55.435Z,99.90
2018-03-31T00:08:56.280Z,99.90
2018-03-31T00:13:57.131Z,99.90
2018-03-31T00:18:57.987Z,99.90
2018-03-31T00:23:58.839Z,99.90
2018-03-31T00:28:59.698Z,99.90
2018-03-31T00:34:00.563Z,99.90
2018-03-31T00:39:01.424Z,99.90
2018-03-31T00:44:02.281Z,99.90
2018-03-31T00:49:03.135Z,99.90
2018-03-31T00:54:03.996Z,99.90
2018-03-31T00:59:04.859Z,99.90
2018-03-31T01:04:05.727Z,99.90
2018-03-31T01:09:07.330Z,99.90
2018-03-31T01:14:08.191Z,99.90
2018-03-31T01:19:09.062Z,99.90
2018-03-31T01:24:09.920Z,99.90
2018-03-31T01:29:10.790Z,99.90
2018-03-31T01:34:11.699Z,99.90
2018-03-31T01:39:12.565Z,99.90
2018-03-31T01:44:13.424Z,99.90
2018-03-31T01:49:14.288Z,99.90
2018-03-31T01:54:15.142Z,99.90
2018-03-31T01:59:15.999Z,99.90
2018-03-31T02:04:16.884Z,99.90
2018-03-31T02:09:17.765Z,99.90
2018-03-31T02:14:18.636Z,99.90
2018-03-31T02:19:19.510Z,99.90
2018-03-31T02:24:20.375Z,99.90
2018-03-31T02:29:21.243Z,99.90
2018-03-31T02:34:22.116Z,99.90
2018-03-31T02:39:23.728Z,99.90
2018-03-31T02:44:24.588Z,99.90
2018-03-31T02:49:25.455Z,99.90
2018-03-31T02:54:26.315Z,99.90
2018-03-31T02:59:27.171Z,99.90
2018-03-31T03:04:28.027Z,99.90
2018-03-31T03:09:28.896Z,99.90
2018-03-31T03:14:29.759Z,99.90
2018-03-31T03:19:30.620Z,99.90
2018-03-31T03:24:31.476Z,99.90
2018-03-31T03:29:33.080Z,99.90
2018-03-31T03:34:33.939Z,99.90
2018-03-31T03:39:34.796Z,99.90
2018-03-31T03:44:35.658Z,99.90
2018-03-31T03:49:36.511Z,99.90
2018-03-31T03:54:37.366Z,99.90
2018-03-31T03:59:38.218Z,99.90
2018-03-31T04:04:39.067Z,99.90
2018-03-31T04:09:39.944Z,99.90
2018-03-31T04:14:40.821Z,99.90
2018-03-31T04:19:41.704Z,99.90
2018-03-31T04:24:43.299Z,99.90
2018-03-31T04:29:44.148Z,99.90
2018-03-31T04:34:45.016Z,99.90
2018-03-31T04:39:45.913Z,99.90
2018-03-31T04:44:46.776Z,99.90
2018-03-31T04:49:47.635Z,99.90
2018-03-31T04:54:49.249Z,99.90
2018-03-31T04:59:50.111Z,99.90
2018-03-31T05:04:50.995Z,99.90
2018-03-31T05:09:51.865Z,99.90
2018-03-31T05:14:52.727Z,99.90
2018-03-31T05:19:54.322Z,99.90
2018-03-31T05:24:55.192Z,99.90
2018-03-31T05:29:56.098Z,99.90
2018-03-31T05:34:56.955Z,99.90
2018-03-31T05:39:57.819Z,99.90
2018-03-31T05:44:59.443Z,99.90
2018-03-31T05:50:00.316Z,99.90
2018-03-31T05:55:01.175Z,99.90
2018-03-31T06:00:02.076Z,99.90
2018-03-31T06:05:02.941Z,99.90
2018-03-31T06:10:03.799Z,99.90
2018-03-31T06:15:04.657Z,99.90
2018-03-31T06:20:05.521Z,99.90
2018-03-31T06:25:06.372Z,99.90
2018-03-31T06:30:07.224Z,99.90
2018-03-31T06:35:08.071Z,99.90
2018-03-31T06:40:08.925Z,99.90
2018-03-31T06:45:09.784Z,99.90
2018-03-31T06:50:10.643Z,99.90
2018-03-31T06:55:11.505Z,99.90
2018-03-31T07:00:12.358Z,99.90
2018-03-31T07:05:13.222Z,99.90
2018-03-31T07:10:14.099Z,99.90
2018-03-31T07:15:14.971Z,99.70
2018-03-31T07:20:16.569Z,87.50
2018-03-31T07:25:17.419Z,87.40
2018-03-31T07:30:18.273Z,85.90
2018-03-31T07:35:19.140Z,83.20
2018-03-31T07:40:20.013Z,82.00
2018-03-31T07:45:20.895Z,83.00
2018-03-31T07:50:21.767Z,74.90
2018-03-31T07:55:23.379Z,67.30
2018-03-31T08:00:24.227Z,67.20
2018-03-31T08:05:25.080Z,63.50
2018-03-31T08:10:25.963Z,66.00
2018-03-31T08:15:26.823Z,67.70
2018-03-31T08:20:27.699Z,65.40
2018-03-31T08:25:28.574Z,69.40
2018-03-31T08:30:30.312Z,63.70
2018-03-31T08:35:31.049Z,63.70
2018-03-31T08:40:31.917Z,63.30
2018-03-31T08:45:32.775Z,59.80
2018-03-31T08:50:33.656Z,54.40
2018-03-31T08:55:35.271Z,58.00
2018-03-31T09:00:36.126Z,58.00
2018-03-31T09:05:37.002Z,54.40
2018-03-31T09:10:37.875Z,52.40
2018-03-31T09:15:38.732Z,55.20
2018-03-31T09:20:39.591Z,53.60
2018-03-31T09:25:40.443Z,53.30
2018-03-31T09:30:41.307Z,52.30
2018-03-31T09:35:42.914Z,46.00
2018-03-31T09:40:43.779Z,45.80
2018-03-31T09:45:44.636Z,42.30
2018-03-31T09:50:45.504Z,41.90
2018-03-31T09:55:46.355Z,43.80
2018-03-31T10:00:47.283Z,42.10
2018-03-31T10:05:48.182Z,41.00
2018-03-31T10:10:49.047Z,43.80
2018-03-31T10:15:49.905Z,42.20
2018-03-31T10:20:50.752Z,41.30
2018-03-31T10:25:51.607Z,42.10
2018-03-31T10:30:52.467Z,46.30
2018-03-31T10:35:53.334Z,43.00
2018-03-31T10:40:54.924Z,43.10
2018-03-31T10:45:55.767Z,43.80
2018-03-31T10:50:57.358Z,47.10
2018-03-31T10:55:58.215Z,47.00
2018-03-31T11:00:59.084Z,45.90
2018-03-31T11:05:59.941Z,44.30
2018-03-31T11:11:00.796Z,45.80
2018-03-31T11:16:01.662Z,44.90
2018-03-31T11:21:02.525Z,43.70
2018-03-31T11:26:03.378Z,43.40
2018-03-31T11:31:04.228Z,43.30
2018-03-31T11:36:05.084Z,43.30
2018-03-31T11:41:05.935Z,42.10
2018-03-31T11:46:06.787Z,41.00
2018-03-31T11:51:07.647Z,38.80
2018-03-31T11:56:08.502Z,39.40
2018-03-31T12:01:09.363Z,41.00
2018-03-31T12:06:10.217Z,39.00
2018-03-31T12:11:11.079Z,39.00
2018-03-31T12:16:11.932Z,39.20
2018-03-31T12:21:12.781Z,39.00
2018-03-31T12:26:13.643Z,38.70
2018-03-31T12:31:14.504Z,36.00
2018-03-31T12:36:15.360Z,38.10
2018-03-31T12:41:16.224Z,39.40
2018-03-31T12:46:17.835Z,36.90
2018-03-31T12:51:18.687Z,36.90
2018-03-31T12:56:19.553Z,35.30
2018-03-31T13:01:20.415Z,35.60
2018-03-31T13:06:21.271Z,37.40
2018-03-31T13:11:22.148Z,37.60
2018-03-31T13:16:23.053Z,35.90
2018-03-31T13:21:24.619Z,37.40
2018-03-31T13:26:25.475Z,37.50
2018-03-31T13:31:26.372Z,37.10
2018-03-31T13:36:27.240Z,35.40
2018-03-31T13:41:28.108Z,35.50
2018-03-31T13:46:28.968Z,33.10
2018-03-31T13:51:30.571Z,37.40
2018-03-31T13:56:31.432Z,37.50
2018-03-31T14:01:32.299Z,35.00
2018-03-31T14:06:33.192Z,32.90
2018-03-31T14:11:34.122Z,33.10
2018-03-31T14:16:35.003Z,34.10
2018-03-31T14:21:35.872Z,33.70
2018-03-31T14:26:37.475Z,34.60
2018-03-31T14:31:38.332Z,34.60
2018-03-31T14:36:39.192Z,32.70
2018-03-31T14:41:40.077Z,35.90
2018-03-31T14:46:40.944Z,34.90
2018-03-31T14:51:41.814Z,34.50
2018-03-31T14:56:43.406Z,36.10
2018-03-31T15:01:44.269Z,36.10
2018-03-31T15:06:45.129Z,33.90
2018-03-31T15:11:45.990Z,35.30
2018-03-31T15:16:46.841Z,34.30
2018-03-31T15:21:47.707Z,34.60
2018-03-31T15:26:48.559Z,34.30
2018-03-31T15:31:49.411Z,35.10
2018-03-31T15:36:50.276Z,35.50
2018-03-31T15:41:51.911Z,33.90
2018-03-31T15:46:52.777Z,33.10
2018-03-31T15:51:53.627Z,33.60
2018-03-31T15:56:54.483Z,33.00
2018-03-31T16:01:55.343Z,32.60
2018-03-31T16:06:56.195Z,32.50
2018-03-31T16:11:57.063Z,33.80
2018-03-31T16:16:57.919Z,32.30
2018-03-31T16:21:58.776Z,34.40
2018-03-31T16:26:59.652Z,33.50
2018-03-31T16:32:00.502Z,34.00
2018-03-31T16:37:01.359Z,34.10
2018-03-31T16:42:02.239Z,34.80
2018-03-31T16:47:03.840Z,34.90
2018-03-31T16:52:04.710Z,34.90
2018-03-31T16:57:05.560Z,34.70
2018-03-31T17:02:06.423Z,34.50
2018-03-31T17:07:07.279Z,36.00
2018-03-31T17:12:08.136Z,36.60
2018-03-31T17:17:09.052Z,35.40
2018-03-31T17:22:09.911Z,35.70
2018-03-31T17:27:10.767Z,36.40
2018-03-31T17:32:11.648Z,36.10
2018-03-31T17:37:12.643Z,37.90
2018-03-31T17:42:13.503Z,39.80
2018-03-31T17:47:14.355Z,41.20
2018-03-31T17:52:15.216Z,42.70
2018-03-31T17:57:16.807Z,43.70
2018-03-31T18:02:17.680Z,43.60
2018-03-31T18:07:18.557Z,44.00
2018-03-31T18:12:19.413Z,44.70
2018-03-31T18:17:20.275Z,45.30
2018-03-31T18:22:21.135Z,45.50
2018-03-31T18:27:22.021Z,45.60
2018-03-31T18:32:22.864Z,46.00
2018-03-31T18:37:24.552Z,47.20
2018-03-31T18:42:25.367Z,46.40
2018-03-31T18:47:26.235Z,47.00
2018-03-31T18:52:27.091Z,48.50
2018-03-31T18:57:27.951Z,49.80
2018-03-31T19:02:28.805Z,50.50
2018-03-31T19:07:29.654Z,51.80
2018-03-31T19:12:30.521Z,52.50
2018-03-31T19:17:34.481Z,53.20
2018-03-31T19:22:35.491Z,53.20
2018-03-31T19:27:36.355Z,54.00
2018-03-31T19:32:37.960Z,54.20
2018-03-31T19:37:38.812Z,54.20
2018-03-31T19:42:39.670Z,54.70
2018-03-31T19:47:40.531Z,54.60
2018-03-31T19:52:41.384Z,55.10
2018-03-31T19:57:42.283Z,55.80
2018-03-31T20:02:43.139Z,56.60
2018-03-31T20:07:44.010Z,56.70
2018-03-31T20:12:45.622Z,57.70
2018-03-31T20:17:46.485Z,57.60
2018-03-31T20:22:47.335Z,58.20
2018-03-31T20:27:48.183Z,59.00
2018-03-31T20:32:49.031Z,59.60
2018-03-31T20:37:49.884Z,60.20
2018-03-31T20:42:50.746Z,61.30
2018-03-31T20:47:51.610Z,61.50
2018-03-31T20:52:52.473Z,62.60
2018-03-31T20:57:53.323Z,63.10
2018-03-31T21:02:54.179Z,62.50
2018-03-31T21:07:55.052Z,62.20
2018-03-31T21:12:55.921Z,61.90
2018-03-31T21:17:56.783Z,63.30
2018-03-31T21:22:58.380Z,61.60
2018-03-31T21:27:59.267Z,61.60
2018-03-31T21:33:00.119Z,62.40
2018-03-31T21:38:00.979Z,62.20
2018-03-31T21:43:01.836Z,63.80
2018-03-31T21:48:02.708Z,64.60
2018-03-31T21:53:03.568Z,65.10
2018-03-31T21:58:04.431Z,64.30
2018-03-31T22:03:05.291Z,64.50
2018-03-31T22:08:06.885Z,64.60
2018-03-31T22:13:13.780Z,64.60
2018-03-31T22:18:14.661Z,64.10
2018-03-31T22:23:15.516Z,65.00
2018-03-31T22:28:16.380Z,65.60
2018-03-31T22:33:17.243Z,63.80
2018-03-31T22:38:18.122Z,63.40
2018-03-31T22:43:18.995Z,64.30
2018-03-31T22:48:19.855Z,64.70
2018-03-31T22:53:20.717Z,64.60
2018-03-31T22:58:21.584Z,63.80
2018-03-31T23:03:22.434Z,64.50
2018-03-31T23:08:23.296Z,64.30
2018-03-31T23:13:24.187Z,64.40
2018-03-31T23:18:25.035Z,64.70
2018-03-31T23:23:25.887Z,68.60
2018-03-31T23:28:26.760Z,73.20
2018-03-31T23:33:27.623Z,74.20
2018-03-31T23:38:29.230Z,71.50
2018-03-31T23:43:30.112Z,71.50
2018-03-31T23:48:30.976Z,70.60
2018-03-31T23:53:31.835Z,70.30
2018-03-31T23:58:32.783Z,71.90
